Etusivu
METAR-TAF:

METAR-TAF

Lentoasemat :

Odiham, Englanti

Leveyspiiri: 51-14N, Pituuspiiri: 000-57W, korkeus merenpinnasta: 123 m

Tämänhetkinen sää

Tämä raportti tehtiin 21 minuuttia sitten, kello 08.50 UTC
Tuuli 10 kn etelästä
Lämpötila 8°C
Kosteus 93%
Ilmanpaine 1020 hPa
Näkyvyys 10 km tai enemmän
Pilvistä 700 ft:n korkeudessa

METAR: EGVO 040850Z 17010KT 9999 OVC007 08/07 Q1020 RMK GRN

Aika: 10:11 (09:11 UTC)

Sääennuste

Tämä raportti tehtiin 13 tuntia ja 55 minuuttia sitten, kello 19.16 UTC
Ennuste voimassa 02. päivästä klo 21 UTC - 03. päivään klo 09 UTC
Tuuli 8 kn lännestä
Näkyvyys 10 km tai enemmän
Muutamia pilviä 3000 ft:n korkeudessa
Todennäköisyys 30% :
Ajoittain
03. päivästä klo 00 UTC - 03. päivään klo 06 UTC
Hajanaisia pilviä 2000 ft:n korkeudessa

TAF: EGVO 021916Z 0221/0309 28008KT 9999 FEW030 PROB30 TEMPO 0300/0306 SCT020

Säähavainnot ja -ennusteet yli 4000 lentoasemalta (METAR- ja TAF-raportit).

Käytössä olevat sääasemat on merkitty karttaan keltaisilla ja punaisilla pisteillä.

Aseta hiiri pisteen päälle nähdäksesi sääaseman nimen.

Klikkaa sitten nähdäksesi säähavainnot ja -ennusteet.

Kartan vaihtaminen: klikkaa mustalla rastilla varustettuja vihreitä pisteitä, niin voit zoomata sisään; viivalla varustettua vihreää pistettä, niin voit zoomata ulos tai vihreitä nuolia, niin pääset viereisille kartoille.


METAR-TAF: